Time;durP1;ratioP1;P1;durP2;ratioP2;P2;SDS_P1;SDS_P2;PMS_P1;PMS_P2;Temp;Humidity;BMP_temperature;BMP_pressure;BME280_temperature;BME280_humidity;BME280_pressure;Samples;Min_cycle;Max_cycle;Signal;HPM_P1;HPM_P2
2023/03/02 00:01:38;;;;;;;;;;;5.30;58.70;;;4.20;47.09;101337.63;5010171;28;19932;-89
2023/03/02 00:04:08;;;;;;;;;;;5.40;58.40;;;4.21;47.19;101336.66;4986832;28;20048;-89
2023/03/02 00:06:36;;;;;;;;;;;5.30;58.50;;;4.21;47.15;101336.66;5010213;28;19929;-88
2023/03/02 00:09:04;;;;;;;;;;;5.30;58.60;;;4.22;46.68;101333.03;4994169;28;20484;-89
2023/03/02 00:11:33;;;;;;;;;;;5.30;58.20;;;4.22;46.80;101330.41;4993132;28;19929;-88
2023/03/02 00:14:02;;;;;;;;;;;5.30;58.40;;;4.13;46.56;101340.03;4994498;28;19930;-88
2023/03/02 00:16:29;;;;;;;;;;;5.20;57.90;;;4.04;46.95;101339.09;5006537;28;19934;-88
2023/03/02 00:18:56;;;;;;;;;;;5.20;58.50;;;4.11;47.08;101345.47;4993868;28;20417;-90
2023/03/02 00:21:24;;;;;;;;;;;5.20;58.70;;;4.07;47.31;101340.63;5011178;28;19969;-88
2023/03/02 00:23:51;;;;;;;;;;;5.20;58.50;;;4.11;47.08;101344.66;4988396;28;19930;-89
2023/03/02 00:26:18;;;;;;;;;;;5.20;58.60;;;4.09;46.96;101338.66;4990564;28;19984;-89
2023/03/02 00:28:45;;;;;;;;;;;5.20;58.70;;;4.13;47.15;101337.41;4991447;28;19926;-88
2023/03/02 00:31:14;;;;;;;;;;;5.20;58.50;;;4.12;46.98;101333.94;4996435;28;20405;-89
2023/03/02 00:33:41;;;;;;;;;;;5.20;58.40;;;4.12;46.95;101326.00;4978433;28;19965;-89
2023/03/02 00:36:15;;;;;;;;;;;5.30;58.60;;;4.12;47.02;101327.81;4988361;28;20247;-90
2023/03/02 00:38:42;;;;;;;;;;;5.30;58.50;;;4.12;46.85;101331.28;4990413;28;19935;-88
2023/03/02 00:41:10;;;;;;;;;;;5.30;58.70;;;4.12;47.03;101320.72;4992273;28;19989;-89
2023/03/02 00:43:37;;;;;;;;;;;5.30;58.50;;;4.09;47.39;101318.38;4988072;28;19933;-88
2023/03/02 00:46:10;;;;;;;;;;;5.30;58.50;;;4.02;47.32;101327.06;4993141;28;19930;-89
2023/03/02 00:48:38;;;;;;;;;;;5.20;58.20;;;4.04;47.09;101319.81;4990709;28;19963;-89
2023/03/02 00:51:06;;;;;;;;;;;5.20;58.30;;;4.03;47.18;101310.22;5008850;28;19933;-89
2023/03/02 00:53:34;;;;;;;;;;;5.20;58.50;;;4.03;47.42;101307.59;5010904;28;19929;-87
2023/03/02 00:56:01;;;;;;;;;;;5.20;58.60;;;4.06;47.27;101307.31;4992007;28;20304;-89
2023/03/02 00:58:29;;;;;;;;;;;5.20;58.50;;;4.04;46.87;101310.06;4993511;28;19933;-88
2023/03/02 01:00:58;;;;;;;;;;;5.20;58.50;;;4.05;47.02;101308.25;4981694;28;20444;-90
2023/03/02 01:03:26;;;;;;;;;;;5.20;58.60;;;4.05;47.33;101306.47;4974208;28;19925;-90
2023/03/02 01:05:55;;;;;;;;;;;5.20;58.70;;;4.07;46.83;101307.16;4984408;28;19929;-89
2023/03/02 01:08:22;;;;;;;;;;;5.20;58.50;;;4.05;47.02;101302.97;4994812;28;19925;-89
2023/03/02 01:10:49;;;;;;;;;;;5.20;58.40;;;4.02;47.05;101301.47;4982307;28;20042;-89
2023/03/02 01:13:16;;;;;;;;;;;5.10;58.70;;;4.01;47.08;101294.56;4977926;28;20024;-89
2023/03/02 01:15:43;;;;;;;;;;;5.10;58.80;;;3.99;47.04;101298.31;4992170;28;20429;-89
2023/03/02 01:18:10;;;;;;;;;;;5.10;58.70;;;4.00;46.86;101298.19;4986107;28;20324;-89
2023/03/02 01:20:38;;;;;;;;;;;5.10;58.90;;;3.99;47.16;101293.84;4993312;28;19932;-90
2023/03/02 01:23:06;;;;;;;;;;;5.10;58.80;;;3.94;47.20;101297.91;5000874;28;19976;-91
2023/03/02 01:25:33;;;;;;;;;;;5.00;58.40;;;3.92;47.23;101294.59;4986072;28;20420;-91
2023/03/02 01:28:00;;;;;;;;;;;5.00;59.10;;;3.93;47.15;101299.72;5009622;28;20020;-90
2023/03/02 01:30:27;;;;;;;;;;;5.00;59.10;;;3.93;47.40;101301.53;4993290;28;19971;-90
2023/03/02 01:32:54;;;;;;;;;;;5.00;59.30;;;3.84;47.39;101290.06;5008492;28;19929;-89
2023/03/02 01:35:21;;;;;;;;;;;4.90;59.30;;;3.86;47.34;101291.59;4991319;28;20377;-90
2023/03/02 01:37:48;;;;;;;;;;;4.90;59.30;;;3.81;47.52;101288.56;4991206;28;19929;-89
2023/03/02 01:40:17;;;;;;;;;;;4.90;59.30;;;3.82;47.16;101295.47;5008324;28;20394;-88
2023/03/02 01:42:52;;;;;;;;;;;4.90;59.30;;;3.83;47.10;101293.69;4992140;28;20401;-89
2023/03/02 01:45:45;;;;;;;;;;;4.90;59.50;;;3.83;47.18;101291.03;4973358;28;19929;-89
2023/03/02 01:48:18;;;;;;;;;;;4.90;59.50;;;3.75;47.35;101289.13;4995041;28;19929;-88
2023/03/02 01:50:45;;;;;;;;;;;4.80;59.10;;;3.75;47.53;101293.56;4987323;28;19929;-89
2023/03/02 01:53:14;;;;;;;;;;;4.80;59.30;;;3.75;47.26;101290.94;4999599;28;19971;-90
2023/03/02 01:55:43;;;;;;;;;;;4.80;59.30;;;3.71;47.37;101290.41;4991977;28;20040;-90
2023/03/02 01:58:12;;;;;;;;;;;4.80;59.40;;;3.75;47.37;101293.56;4992360;28;19976;-89
2023/03/02 02:00:39;;;;;;;;;;;4.80;59.40;;;3.76;47.27;101287.34;5009535;28;20386;-89
2023/03/02 02:03:08;;;;;;;;;;;4.80;59.40;;;3.76;47.50;101276.78;4991067;28;20016;-89
2023/03/02 02:05:36;;;;;;;;;;;4.80;59.50;;;3.77;47.64;101281.06;4989030;28;19956;-89
2023/03/02 02:08:04;;;;;;;;;;;4.90;59.50;;;3.74;47.56;101284.00;4992201;28;20025;-88
2023/03/02 02:10:32;;;;;;;;;;;4.80;59.30;;;3.75;47.59;101283.00;4991784;28;19972;-90
2023/03/02 02:13:01;;;;;;;;;;;4.80;59.40;;;3.74;47.59;101273.44;4991634;28;19933;-90
2023/03/02 02:15:28;;;;;;;;;;;4.80;59.40;;;3.73;47.80;101275.25;4992769;28;19937;-89
2023/03/02 02:17:56;;;;;;;;;;;4.80;59.40;;;3.72;47.54;101265.69;5002285;28;20003;-89
2023/03/02 02:20:29;;;;;;;;;;;4.80;59.50;;;3.70;47.61;101267.63;5012387;28;19926;-89
2023/03/02 02:23:03;;;;;;;;;;;4.80;59.50;;;3.71;47.54;101265.81;5000768;28;19929;-91
2023/03/02 02:25:42;;;;;;;;;;;4.80;59.50;;;3.69;47.84;101270.41;4995527;28;19968;-90
2023/03/02 02:28:15;;;;;;;;;;;4.70;59.70;;;3.71;47.59;101265.81;4994878;28;19926;-89
2023/03/02 02:30:43;;;;;;;;;;;4.80;59.80;;;3.72;47.67;101263.06;5009570;28;19932;-89
2023/03/02 02:33:15;;;;;;;;;;;4.80;59.50;;;3.74;47.61;101261.09;4981541;28;19930;-90
2023/03/02 02:35:42;;;;;;;;;;;4.80;59.70;;;3.74;47.50;101263.72;4993833;28;19933;-90
2023/03/02 02:38:11;;;;;;;;;;;4.80;59.50;;;3.74;47.73;101254.97;4995604;28;19980;-90
2023/03/02 02:40:42;;;;;;;;;;;4.90;59.60;;;3.71;47.69;101250.84;4991666;28;19925;-90
2023/03/02 02:43:15;;;;;;;;;;;4.80;59.50;;;3.68;47.68;101247.66;4992257;28;20770;-89
2023/03/02 02:45:42;;;;;;;;;;;4.80;59.50;;;3.68;47.83;101240.56;4989434;28;19940;-90
2023/03/02 02:48:11;;;;;;;;;;;4.80;59.70;;;3.70;47.61;101241.25;4994905;28;19930;-89
2023/03/02 02:50:38;;;;;;;;;;;4.80;59.60;;;3.72;48.09;101244.59;5009007;28;20385;-89
2023/03/02 02:53:10;;;;;;;;;;;4.80;59.50;;;3.73;47.99;101245.41;4994942;28;19934;-88
2023/03/02 02:55:38;;;;;;;;;;;4.80;59.50;;;3.68;47.71;101242.38;4992482;28;19930;-90
2023/03/02 02:58:13;;;;;;;;;;;4.80;59.50;;;3.65;48.00;101240.84;4977695;28;19929;-89
2023/03/02 03:00:42;;;;;;;;;;;4.80;59.60;;;3.58;47.96;101248.53;5004766;28;20011;-88
2023/03/02 03:03:29;;;;;;;;;;;4.80;59.60;;;3.65;47.96;101253.22;4995263;28;20416;-90
2023/03/02 03:06:00;;;;;;;;;;;4.80;59.80;;;3.64;48.08;101256.84;5007078;28;20008;-90
2023/03/02 03:08:50;;;;;;;;;;;4.80;59.70;;;3.59;48.07;101252.84;4992177;28;19933;-90
2023/03/02 03:11:25;;;;;;;;;;;4.80;59.90;;;3.58;48.24;101263.53;4995399;28;19926;-90
2023/03/02 03:13:57;;;;;;;;;;;4.80;59.90;;;3.58;48.07;101255.63;4986518;28;19926;-90
2023/03/02 03:16:26;;;;;;;;;;;4.80;59.80;;;3.54;48.21;101249.81;4999107;23;20053;-79
2023/03/02 03:18:54;;;;;;;;;;;4.80;59.60;;;3.56;47.98;101252.28;4992641;28;19932;-79
2023/03/02 03:21:22;;;;;;;;;;;4.80;59.60;;;3.55;48.04;101251.47;5007445;28;19926;-79
2023/03/02 03:23:49;;;;;;;;;;;4.80;59.50;;;3.56;48.26;101254.91;4989352;28;19929;-79
2023/03/02 03:26:17;;;;;;;;;;;4.80;59.50;;;3.51;48.01;101247.44;4992996;28;19976;-79
2023/03/02 03:28:46;;;;;;;;;;;4.80;59.30;;;3.52;48.15;101243.84;5011647;28;19983;-79
2023/03/02 03:31:13;;;;;;;;;;;4.80;59.50;;;3.47;48.14;101238.19;5010949;28;20339;-78
2023/03/02 03:33:41;;;;;;;;;;;4.80;59.60;;;3.45;48.32;101245.41;4993913;28;20028;-78
2023/03/02 03:36:09;;;;;;;;;;;4.80;59.50;;;3.43;48.18;101243.91;5010464;28;20404;-79
2023/03/02 03:38:36;;;;;;;;;;;4.80;59.70;;;3.46;48.17;101247.06;4993193;28;20012;-79
2023/03/02 03:41:03;;;;;;;;;;;4.80;59.60;;;3.48;48.08;101244.28;5010506;28;20422;-78
2023/03/02 03:43:30;;;;;;;;;;;4.70;59.70;;;3.46;48.04;101251.50;5011234;28;19938;-79
2023/03/02 03:45:57;;;;;;;;;;;4.70;59.70;;;3.45;48.47;101255.13;4993503;28;19983;-78
2023/03/02 03:48:24;;;;;;;;;;;4.70;59.70;;;3.43;48.39;101257.91;4992817;28;19948;-79
2023/03/02 03:50:54;;;;;;;;;;;4.70;59.80;;;3.44;48.38;101264.00;4993732;28;19929;-79
2023/03/02 03:53:21;;;;;;;;;;;4.70;59.80;;;3.42;48.25;101260.69;4993505;28;19967;-79
2023/03/02 03:55:49;;;;;;;;;;;4.60;60.00;;;3.36;48.35;101262.91;5011185;28;19948;-79
2023/03/02 03:58:16;;;;;;;;;;;4.60;60.20;;;3.39;48.36;101256.53;4990237;28;20501;-79
2023/03/02 04:00:46;;;;;;;;;;;4.60;60.40;;;3.41;48.20;101264.28;4990308;28;19929;-79
2023/03/02 04:03:14;;;;;;;;;;;4.60;60.20;;;3.41;48.28;101259.00;4990087;28;20431;-79
2023/03/02 04:05:42;;;;;;;;;;;4.60;60.10;;;3.41;48.35;101245.84;4992295;28;20050;-79
2023/03/02 04:08:10;;;;;;;;;;;4.60;60.20;;;3.40;48.33;101260.81;4991830;28;19925;-78
2023/03/02 04:10:37;;;;;;;;;;;4.60;59.70;;;3.45;47.98;101258.59;5010470;28;20020;-79
2023/03/02 04:13:04;;;;;;;;;;;4.70;59.90;;;3.43;47.99;101260.53;4993072;28;20345;-78
2023/03/02 04:15:32;;;;;;;;;;;4.60;59.70;;;3.46;47.90;101256.78;4993116;28;19929;-79
2023/03/02 04:18:00;;;;;;;;;;;4.70;59.70;;;3.38;48.46;101262.78;4992452;28;19937;-78
2023/03/02 04:20:27;;;;;;;;;;;4.70;60.00;;;3.35;48.54;101266.53;4992448;28;19983;-79
2023/03/02 04:22:57;;;;;;;;;;;4.60;59.80;;;3.35;48.54;101261.25;4992724;28;20404;-79
2023/03/02 04:25:27;;;;;;;;;;;4.70;59.90;;;3.34;48.56;101261.41;4992905;28;19925;-79
2023/03/02 04:27:59;;;;;;;;;;;4.70;59.70;;;3.28;48.68;101259.38;4992084;28;19980;-78
2023/03/02 04:30:31;;;;;;;;;;;4.60;60.10;;;3.23;48.84;101256.31;4992406;28;19959;-78
2023/03/02 04:32:58;;;;;;;;;;;4.60;60.20;;;3.22;48.83;101249.38;4991840;28;20421;-78
2023/03/02 04:35:28;;;;;;;;;;;4.60;60.20;;;3.22;48.53;101254.63;4992711;28;19937;-78
2023/03/02 04:37:55;;;;;;;;;;;4.50;60.10;;;3.25;48.59;101254.38;4989883;28;20409;-79
2023/03/02 04:40:22;;;;;;;;;;;4.50;60.30;;;3.27;48.39;101241.84;4992565;28;19929;-79
2023/03/02 04:42:50;;;;;;;;;;;4.50;60.30;;;3.28;48.60;101254.09;4991787;28;19932;-79
2023/03/02 04:45:18;;;;;;;;;;;4.50;60.30;;;3.30;48.55;101249.50;5015710;28;19936;-80
2023/03/02 04:47:45;;;;;;;;;;;4.50;60.50;;;3.30;48.11;101258.22;4996188;28;19930;-80
2023/03/02 04:50:13;;;;;;;;;;;4.50;60.20;;;3.30;48.27;101257.41;5010346;28;19930;-80
2023/03/02 04:52:41;;;;;;;;;;;4.50;60.20;;;3.28;48.33;101246.19;5009169;28;19930;-81
2023/03/02 04:55:09;;;;;;;;;;;4.50;60.20;;;3.26;48.53;101256.03;5006378;28;19936;-81
2023/03/02 04:57:36;;;;;;;;;;;4.60;60.20;;;3.28;48.54;101256.72;5008287;28;20313;-80
2023/03/02 05:00:08;;;;;;;;;;;4.50;60.00;;;3.29;48.14;101255.75;5008659;28;20429;-81
2023/03/02 05:02:35;;;;;;;;;;;4.50;59.90;;;3.26;48.24;101248.94;5000241;28;20052;-80
2023/03/02 05:05:02;;;;;;;;;;;4.50;59.90;;;3.29;48.30;101255.75;5009968;28;19929;-80
2023/03/02 05:07:29;;;;;;;;;;;4.50;60.10;;;3.31;48.30;101248.50;5009565;28;19950;-80
2023/03/02 05:09:56;;;;;;;;;;;4.80;60.20;;;3.29;48.25;101247.84;5009047;28;20419;-80
2023/03/02 05:12:23;;;;;;;;;;;4.50;60.20;;;3.26;48.00;101242.84;5008388;28;19936;-81
2023/03/02 05:14:50;;;;;;;;;;;4.50;60.20;;;3.26;48.35;101242.84;5009937;28;19925;-81
2023/03/02 05:17:18;;;;;;;;;;;4.50;60.20;;;3.26;48.22;101240.19;5009670;28;20384;-81
2023/03/02 05:19:45;;;;;;;;;;;4.50;60.00;;;3.28;48.19;101251.44;5009095;28;20405;-81
2023/03/02 05:22:12;;;;;;;;;;;4.50;60.00;;;3.31;48.10;101254.59;5007994;28;19929;-81
2023/03/02 05:24:39;;;;;;;;;;;4.50;59.90;;;3.26;48.22;101235.75;5008886;28;19933;-81
2023/03/02 05:27:06;;;;;;;;;;;4.50;60.20;;;3.21;48.79;101247.72;4991718;28;19930;-81
2023/03/02 05:29:33;;;;;;;;;;;4.50;60.50;;;3.18;48.65;101246.22;5009081;28;19936;-81
2023/03/02 05:32:00;;;;;;;;;;;4.50;60.60;;;3.18;48.47;101243.56;5009621;28;19933;-80
2023/03/02 05:34:28;;;;;;;;;;;4.50;60.40;;;3.16;48.87;101249.94;5008916;28;19936;-80
2023/03/02 05:36:57;;;;;;;;;;;4.40;60.30;;;3.14;49.00;101251.91;5008813;28;19933;-79
2023/03/02 05:39:23;;;;;;;;;;;4.50;60.50;;;3.18;48.71;101256.75;5008352;28;20386;-80
2023/03/02 05:41:50;;;;;;;;;;;4.40;60.30;;;3.22;48.43;101244.09;5009661;28;19925;-81
2023/03/02 05:44:17;;;;;;;;;;;4.40;60.40;;;3.23;48.64;101253.69;5006523;28;19936;-87
2023/03/02 05:46:44;;;;;;;;;;;4.40;60.40;;;3.25;48.69;101243.81;5006220;28;19936;-78
2023/03/02 05:49:11;;;;;;;;;;;4.40;60.60;;;3.25;48.55;101244.66;5008275;28;19929;-78
2023/03/02 05:51:39;;;;;;;;;;;4.40;60.50;;;3.25;48.47;101244.66;5009617;28;20001;-78
2023/03/02 05:54:06;;;;;;;;;;;4.30;60.40;;;3.21;48.23;101243.28;4999729;28;19929;-78
2023/03/02 05:56:33;;;;;;;;;;;4.40;60.40;;;3.20;48.70;101246.06;5006972;28;19926;-78
2023/03/02 05:59:00;;;;;;;;;;;4.40;60.60;;;3.15;48.70;101235.94;5010652;28;19931;-78
2023/03/02 06:01:27;;;;;;;;;;;4.30;60.60;;;3.12;48.65;101232.75;5013364;28;20032;-78
2023/03/02 06:03:54;;;;;;;;;;;4.30;60.70;;;3.11;48.96;101234.56;5010440;28;19929;-78
2023/03/02 06:06:21;;;;;;;;;;;4.30;60.80;;;3.08;48.74;101240.97;5010711;28;20650;-78
2023/03/02 06:08:50;;;;;;;;;;;4.30;60.90;;;3.09;48.76;101237.34;5010728;28;19929;-79
2023/03/02 06:11:16;;;;;;;;;;;4.30;60.80;;;3.10;48.79;101238.19;5012697;28;19929;-78
2023/03/02 06:13:44;;;;;;;;;;;4.30;60.80;;;3.10;48.98;101233.75;5013432;28;19937;-78
2023/03/02 06:16:11;;;;;;;;;;;4.30;60.80;;;3.08;48.65;101238.34;4995302;28;19929;-77
2023/03/02 06:18:38;;;;;;;;;;;4.30;60.80;;;3.08;48.64;101240.97;5011453;28;19930;-78
2023/03/02 06:21:05;;;;;;;;;;;4.30;60.70;;;3.09;48.83;101237.34;5012799;28;19926;-77
2023/03/02 06:23:32;;;;;;;;;;;4.30;60.90;;;3.13;48.60;101239.72;5006459;28;19929;-78
2023/03/02 06:26:00;;;;;;;;;;;4.30;60.90;;;3.14;48.41;101241.38;5009981;28;20382;-77
2023/03/02 06:28:27;;;;;;;;;;;4.30;60.80;;;3.09;48.28;101240.00;5008933;28;19936;-77
2023/03/02 06:30:54;;;;;;;;;;;4.20;60.80;;;3.08;48.44;101242.78;4990546;28;19930;-78
2023/03/02 06:33:21;;;;;;;;;;;4.20;60.90;;;3.07;48.55;101249.84;5011685;28;19925;-78
2023/03/02 06:35:49;;;;;;;;;;;4.20;61.00;;;3.09;48.95;101258.44;5008981;28;20332;-77
2023/03/02 06:38:16;;;;;;;;;;;4.20;61.10;;;3.08;48.61;101255.97;4993462;28;19968;-77
2023/03/02 06:40:43;;;;;;;;;;;4.20;61.00;;;3.05;48.64;101259.69;5011893;28;20465;-77
2023/03/02 06:43:11;;;;;;;;;;;4.20;61.00;;;3.08;48.87;101267.31;5012135;28;19938;-77
2023/03/02 06:45:38;;;;;;;;;;;4.20;61.00;;;3.13;48.71;101268.72;5011700;28;19929;-78
2023/03/02 06:48:06;;;;;;;;;;;4.20;61.00;;;3.15;48.90;101261.47;5010526;28;20287;-77
2023/03/02 06:50:33;;;;;;;;;;;4.20;61.20;;;3.17;48.55;101260.34;5010899;28;19936;-78
2023/03/02 06:53:01;;;;;;;;;;;4.30;61.10;;;3.17;48.87;101257.69;4994590;28;19991;-78
2023/03/02 06:55:28;;;;;;;;;;;4.30;61.30;;;3.18;48.83;101263.84;5012599;28;19930;-77
2023/03/02 06:57:55;;;;;;;;;;;4.30;61.20;;;3.17;48.92;101268.25;4992401;28;19930;-77
2023/03/02 07:00:26;;;;;;;;;;;4.30;61.20;;;3.10;49.01;101265.38;5012458;28;19929;-77
2023/03/02 07:02:54;;;;;;;;;;;4.30;61.20;;;3.08;48.96;101262.06;5012321;28;20589;-77
2023/03/02 07:05:22;;;;;;;;;;;4.20;61.20;;;3.05;49.23;101267.59;5011028;28;19925;-77
2023/03/02 07:07:49;;;;;;;;;;;4.20;61.20;;;3.10;49.11;101268.00;5010393;28;19964;-78
2023/03/02 07:10:16;;;;;;;;;;;4.20;61.50;;;3.09;48.95;101263.72;5007702;28;19929;-78
2023/03/02 07:12:43;;;;;;;;;;;4.20;61.30;;;3.05;49.10;101259.69;5012147;28;19935;-78
2023/03/02 07:15:11;;;;;;;;;;;4.20;61.70;;;3.09;49.23;101263.72;4994519;28;19935;-78
2023/03/02 07:17:40;;;;;;;;;;;4.20;61.80;;;3.05;49.38;101253.59;5011827;28;20027;-78
2023/03/02 07:20:08;;;;;;;;;;;4.20;61.70;;;3.10;49.01;101256.63;5012200;28;19932;-77
2023/03/02 07:22:35;;;;;;;;;;;4.20;61.80;;;3.16;49.52;101256.06;5007038;28;19925;-77
2023/03/02 07:25:02;;;;;;;;;;;4.20;62.00;;;3.21;49.19;101259.09;5011696;28;19929;-78
2023/03/02 07:27:29;;;;;;;;;;;4.30;62.00;;;3.12;49.04;101265.22;5010887;28;19941;-78
2023/03/02 07:29:56;;;;;;;;;;;4.20;61.40;;;3.10;49.16;101265.38;5010006;28;20382;-78
2023/03/02 07:32:23;;;;;;;;;;;4.20;61.80;;;3.16;49.12;101268.41;5010472;28;19930;-77
2023/03/02 07:34:52;;;;;;;;;;;4.20;61.90;;;3.12;48.99;101265.22;5010496;28;19960;-77
2023/03/02 07:37:19;;;;;;;;;;;4.20;61.80;;;3.18;49.46;101269.94;4991660;28;19934;-78
2023/03/02 07:39:47;;;;;;;;;;;4.20;62.00;;;3.22;49.15;101262.53;5010635;28;19934;-77
2023/03/02 07:42:14;;;;;;;;;;;4.30;62.10;;;3.16;49.12;101263.13;5010794;28;19936;-77
2023/03/02 07:44:44;;;;;;;;;;;4.20;61.60;;;3.16;48.98;101263.13;4993085;28;20282;-77
2023/03/02 07:47:11;;;;;;;;;;;4.20;62.00;;;3.22;49.19;101267.81;5009192;28;20382;-77
2023/03/02 07:49:38;;;;;;;;;;;4.20;62.00;;;3.26;49.40;101266.56;5013082;28;20307;-77
2023/03/02 07:52:07;;;;;;;;;;;4.30;62.20;;;3.31;49.36;101265.16;5011404;28;19929;-77
2023/03/02 07:54:34;;;;;;;;;;;4.30;62.40;;;3.34;49.01;101264.03;5009481;28;20463;-77
2023/03/02 07:57:01;;;;;;;;;;;4.30;62.00;;;3.20;49.25;101272.41;5008967;28;19933;-77
2023/03/02 07:59:28;;;;;;;;;;;4.30;62.00;;;3.23;49.49;101269.50;5007489;28;19929;-77
2023/03/02 08:01:55;;;;;;;;;;;4.30;62.20;;;3.25;49.44;101275.44;5009356;28;19925;-77
2023/03/02 08:04:23;;;;;;;;;;;4.40;62.10;;;3.30;49.44;101276.69;5009415;28;19925;-77
2023/03/02 08:06:50;;;;;;;;;;;4.40;62.20;;;3.34;49.25;101274.59;5011186;28;19929;-78
2023/03/02 08:09:18;;;;;;;;;;;4.40;62.00;;;3.38;49.46;101270.69;5010502;28;19931;-78
2023/03/02 08:11:46;;;;;;;;;;;4.40;62.30;;;3.44;49.01;101271.91;5009334;28;19929;-78
2023/03/02 08:14:13;;;;;;;;;;;4.50;61.80;;;3.42;48.80;101269.44;5010755;28;19930;-78
2023/03/02 08:16:40;;;;;;;;;;;4.40;61.50;;;3.45;48.72;101269.13;5008787;28;20381;-78
2023/03/02 08:19:07;;;;;;;;;;;4.40;61.60;;;3.49;48.95;101274.94;5009929;28;20019;-78
2023/03/02 08:21:34;;;;;;;;;;;4.50;61.80;;;3.45;48.79;101260.41;5009786;28;19971;-78
2023/03/02 08:24:01;;;;;;;;;;;4.50;61.40;;;3.42;48.60;101272.06;5010984;28;19930;-78
2023/03/02 08:26:30;;;;;;;;;;;4.50;60.90;;;3.36;47.88;101277.91;5009770;28;19929;-78
2023/03/02 08:28:57;;;;;;;;;;;4.50;60.20;;;3.37;47.80;101261.13;5010372;28;20381;-78
2023/03/02 08:31:24;;;;;;;;;;;4.50;59.90;;;3.42;47.57;101273.88;5008718;28;20037;-78
2023/03/02 08:33:51;;;;;;;;;;;4.50;59.70;;;3.41;47.38;101270.38;5009872;28;19933;-78
2023/03/02 08:36:19;;;;;;;;;;;4.50;59.60;;;3.42;47.29;101265.97;5009995;28;19926;-85
2023/03/02 08:38:47;;;;;;;;;;;4.50;59.20;;;3.39;46.90;101259.16;5010742;28;19929;-78
2023/03/02 08:41:16;;;;;;;;;;;4.50;58.50;;;3.38;47.01;101257.50;5009505;28;20680;-77
2023/03/02 08:43:44;;;;;;;;;;;4.50;58.50;;;3.41;46.82;101257.19;4991872;28;20716;-78
2023/03/02 08:46:13;;;;;;;;;;;4.40;58.40;;;3.40;46.70;101258.19;5009824;28;19930;-78
2023/03/02 08:48:40;;;;;;;;;;;4.40;58.50;;;3.43;46.58;101257.09;5010277;28;19929;-77
2023/03/02 08:51:11;;;;;;;;;;;4.50;58.30;;;3.48;46.74;101249.56;5006103;28;19931;-78
2023/03/02 08:53:40;;;;;;;;;;;4.50;58.50;;;3.51;46.38;101263.28;5008697;28;20537;-77
2023/03/02 08:56:15;;;;;;;;;;;4.50;58.00;;;3.49;46.33;101244.13;4996239;28;19992;-78
2023/03/02 08:58:42;;;;;;;;;;;4.50;58.10;;;3.56;46.63;101245.22;4991836;28;19984;-78
2023/03/02 09:01:15;;;;;;;;;;;4.60;58.30;;;3.57;46.46;101244.25;5006701;28;19941;-78
2023/03/02 09:03:42;;;;;;;;;;;4.60;57.90;;;3.57;46.09;101238.97;5010020;28;20474;-77
2023/03/02 09:06:09;;;;;;;;;;;4.70;57.70;;;3.63;46.55;101237.56;4996297;28;19942;-78
2023/03/02 09:08:36;;;;;;;;;;;4.70;57.90;;;3.69;46.13;101247.50;5006466;28;19929;-85
2023/03/02 09:11:03;;;;;;;;;;;4.80;57.90;;;3.72;45.17;101244.59;5005447;28;19933;-77
2023/03/02 09:13:31;;;;;;;;;;;4.80;56.80;;;3.72;45.27;101246.41;5006763;28;19933;-78
2023/03/02 09:15:59;;;;;;;;;;;4.80;57.00;;;3.74;45.25;101244.44;5016251;23;19925;-88
2023/03/02 09:18:28;;;;;;;;;;;4.80;56.90;;;3.77;45.13;101237.06;4994409;28;20390;-90
2023/03/02 09:20:56;;;;;;;;;;;4.80;57.20;;;3.80;45.07;101233.28;5009272;28;19956;-91
2023/03/02 09:23:24;;;;;;;;;;;4.90;57.40;;;3.80;45.16;101231.47;5011148;28;20389;-89
2023/03/02 09:25:51;;;;;;;;;;;4.80;56.60;;;3.82;44.77;101240.06;4999860;28;19937;-88
2023/03/02 09:28:20;;;;;;;;;;;4.90;56.70;;;3.80;44.77;101238.56;5008653;28;19925;-90
2023/03/02 09:30:52;;;;;;;;;;;4.90;56.10;;;3.83;44.41;101238.28;4995852;28;19980;-89
2023/03/02 09:33:19;;;;;;;;;;;4.90;55.50;;;3.87;44.13;101232.53;4991081;28;19999;-88
2023/03/02 09:35:49;;;;;;;;;;;4.90;55.50;;;3.92;44.42;101226.81;4992738;28;20386;-87
2023/03/02 09:38:17;;;;;;;;;;;5.00;56.20;;;3.92;44.29;101229.47;5009972;28;19951;-92
2023/03/02 09:41:04;;;;;;;;;;;5.00;55.70;;;3.95;44.22;101230.97;4991203;28;19930;-92
2023/03/02 09:43:41;;;;;;;;;;;5.00;55.70;;;3.91;43.86;101224.34;5012100;28;19964;-93
2023/03/02 09:46:20;;;;;;;;;;;5.00;55.50;;;3.95;44.20;101226.50;5002784;28;19960;-93
2023/03/02 09:48:59;;;;;;;;;;;5.00;55.40;;;4.04;43.81;101230.06;4999159;28;19972;-92
2023/03/02 09:51:33;;;;;;;;;;;5.10;55.30;;;4.02;43.93;101222.31;4996984;28;19930;-92
2023/03/02 09:54:06;;;;;;;;;;;5.10;55.50;;;4.03;43.81;101217.84;4993969;28;19936;-93
2023/03/02 09:56:36;;;;;;;;;;;5.10;55.20;;;4.03;43.79;101217.84;5008239;28;19925;-93
2023/03/02 09:59:08;;;;;;;;;;;5.10;55.10;;;4.06;43.46;101215.75;4996687;28;19925;-92
2023/03/02 10:01:42;;;;;;;;;;;5.10;54.90;;;4.10;43.76;101219.75;4999302;28;19929;-91
2023/03/02 10:04:15;;;;;;;;;;;5.20;54.70;;;4.14;44.05;101215.81;5011888;28;19929;-92
2023/03/02 10:06:44;;;;;;;;;;;5.20;55.10;;;4.18;43.25;101228.72;4998346;28;19925;-92
2023/03/02 10:09:11;;;;;;;;;;;5.20;54.30;;;4.18;43.10;101224.25;4990743;28;19936;-91
2023/03/02 10:11:49;;;;;;;;;;;5.20;54.20;;;4.21;43.11;101220.50;5012015;28;19929;-92
2023/03/02 10:14:21;;;;;;;;;;;5.20;54.00;;;4.25;43.33;101216.59;4993013;28;19988;-94
2023/03/02 10:16:52;;;;;;;;;;;5.30;53.90;;;4.25;43.01;101217.41;5008594;28;19925;-93
2023/03/02 10:19:23;;;;;;;;;;;5.40;53.90;;;4.29;43.03;101217.91;4987082;28;20515;-90
2023/03/02 10:21:56;;;;;;;;;;;5.40;53.90;;;4.31;42.89;101222.09;4985029;28;19935;-91
2023/03/02 10:24:29;;;;;;;;;;;5.40;53.50;;;4.34;43.10;101224.44;4991152;28;19926;-86
2023/03/02 10:27:01;;;;;;;;;;;5.40;53.90;;;4.38;43.15;101220.47;5004028;28;20028;-85
2023/03/02 10:29:39;;;;;;;;;;;5.40;53.50;;;4.39;42.95;101219.53;4984499;28;19926;-87
2023/03/02 10:32:16;;;;;;;;;;;5.50;53.90;;;4.44;42.99;101227.00;5007365;28;20016;-86
2023/03/02 10:34:43;;;;;;;;;;;5.50;53.50;;;4.47;42.99;101217.91;5005868;28;19929;-86
2023/03/02 10:37:18;;;;;;;;;;;5.50;53.70;;;4.48;42.91;101228.31;5007230;28;20302;-91
2023/03/02 10:39:47;;;;;;;;;;;5.60;53.80;;;4.53;43.29;101217.31;4991686;28;19929;-94
2023/03/02 10:42:42;;;;;;;;;;;5.60;53.90;;;4.53;43.27;101212.84;4995560;28;20289;-94
2023/03/02 10:45:50;;;;;;;;;;;;;;;;;;;;;
2023/03/02 10:59:01;;;;;;;;;;;5.70;53.50;;;4.76;42.76;101204.44;5111371;27;19916;-92
2023/03/02 11:01:29;;;;;;;;;;;5.80;53.10;;;4.79;42.25;101204.97;5116484;27;19986;-94
2023/03/02 11:03:58;;;;;;;;;;;5.90;52.50;;;4.83;42.21;101203.66;5099051;28;19924;-94
2023/03/02 11:06:26;;;;;;;;;;;5.90;52.70;;;4.87;42.38;101222.66;5111862;28;19928;-95
2023/03/02 11:09:00;;;;;;;;;;;5.90;52.70;;;4.88;42.19;101197.88;5091953;28;19924;-94
2023/03/02 11:11:28;;;;;;;;;;;5.90;52.50;;;4.98;41.90;101195.13;5083215;28;19936;-95
2023/03/02 11:14:22;;;;;;;;;;;6.00;51.90;;;4.99;42.25;101197.66;5096110;28;19960;-94
2023/03/02 11:16:51;;;;;;;;;;;6.00;52.80;;;5.00;41.02;101203.75;5084921;28;20019;-92
2023/03/02 11:19:24;;;;;;;;;;;6.00;51.10;;;5.04;41.38;101192.72;5097109;28;19932;-91
2023/03/02 11:21:56;;;;;;;;;;;6.00;51.20;;;5.05;41.13;101191.72;5104933;28;19931;-91
2023/03/02 11:24:29;;;;;;;;;;;6.10;51.50;;;5.08;41.80;101190.59;5090149;28;19928;-92
2023/03/02 11:27:01;;;;;;;;;;;6.20;51.60;;;5.15;40.95;101188.97;5087445;28;20425;-91
2023/03/02 11:29:33;;;;;;;;;;;6.20;51.00;;;5.23;40.34;101190.81;5088005;28;20403;-92
2023/03/02 11:32:05;;;;;;;;;;;6.30;50.20;;;5.23;40.25;101190.81;5071509;28;19932;-93
2023/03/02 11:34:39;;;;;;;;;;;6.20;51.10;;;5.30;40.55;101189.19;5087269;28;19925;-92
2023/03/02 11:37:16;;;;;;;;;;;6.30;50.30;;;5.28;40.80;101185.88;5088110;28;19924;-90
2023/03/02 11:40:27;;;;;;;;;;;;;;;;;;;;;
2023/03/02 11:43:16;;;;;;;;;;;6.30;50.10;;;5.35;40.43;101185.06;5085102;28;19956;-94
2023/03/02 11:46:29;;;;;;;;;;;;;;;;;;;;;
2023/03/02 11:49:13;;;;;;;;;;;6.40;51.10;;;5.50;40.24;101180.00;5078681;28;19974;-95
2023/03/02 11:51:58;;;;;;;;;;;6.50;51.30;;;5.53;39.70;101179.69;5106847;28;19928;-93